Hauptseite
METAR-TAF:

METAR-TAF

Flughäfen :

Militärflugplatz Koksijde

Koksijde, Belgien

Breite: 51-05N, Länge: 002-39E, Höhe: 4 m

Beobachtung

Neuester Wetterbericht von vor 30 Minuten, um 00:25 UTC
Wind 6 kt aus Ost
Temperatur 12°C
Luftfeuchtigkeit 62%
Luftdruck 1000 hPa
Sichtweite 10 km oder mehr

METAR: EBFN 230025Z AUTO 08006KT 9999 SCT230/// 12/05 Q1000 BLU

Zeit: 02:55 (00:55 UTC)

Prognose

Neuester Wetterbericht von vor 9 Stunden und 14 Minuten, um 15:41 UTC
Gültige Prognose vom 22 um 19 UTC bis 23 um 07 UTC
Wind 10 kt aus Ost/Südost
Sichtweite 10 km oder mehr
Aufgelockert bewölkt in der Höhe von 20000 ft

TAF: EBFN 221541Z 2219/2307 12010KT 9999 SCT200

Wetterbeobachtungen und Prognosen von mehr als 4000 Flughäfen (METAR und TAF Bericht).

Die verfügbaren Stationen werden durch gelbe und rote Markierungen auf der Karte dargestellt.

Führen Sie die Maus auf sie, um den Namen der Station zu sehen.

Darauf klicken, um die Beobachtung von Wetterbeobachtungen und Prognosen zu sehen.

Um die Karte zu ändern : klicken Sie auf den grünen Tasten mit einem schwarzen Kreuz Zum Vergrößern, auf den grünen Button mit einem Gedankenstrich zu verkleinern, oder auf die grünen Pfeile für benachbarte Karten.


METAR-TAF: